Time;durP1;ratioP1;P1;durP2;ratioP2;P2;SDS_P1;SDS_P2;PMS_P1;PMS_P2;Temp;Humidity;BMP_temperature;BMP_pressure;BME280_temperature;BME280_humidity;BME280_pressure;Samples;Min_cycle;Max_cycle;Signal;HPM_P1;HPM_P2
2022/07/27 00:01:36;;;;;;;3.50;1.10;;;14.20;99.90;;;;;;4991382;28;20038;-71
2022/07/27 00:04:02;;;;;;;4.25;1.30;;;14.30;99.90;;;;;;4992132;28;20026;-71
2022/07/27 00:06:27;;;;;;;3.55;1.35;;;;;;;;;;5003797;28;20118;-71
2022/07/27 00:08:53;;;;;;;1.88;1.15;;;;;;;;;;5001045;28;20057;-71
2022/07/27 00:11:19;;;;;;;4.30;1.20;;;14.30;99.90;;;;;;5002277;28;20065;-72
2022/07/27 00:13:45;;;;;;;3.55;1.33;;;14.30;99.90;;;;;;4991359;28;20459;-71
2022/07/27 00:16:11;;;;;;;5.45;2.08;;;14.30;99.90;;;;;;5001947;28;20122;-72
2022/07/27 00:18:36;;;;;;;2.72;1.40;;;14.30;99.90;;;;;;4991474;28;20109;-71
2022/07/27 00:21:02;;;;;;;3.33;1.23;;;14.30;99.90;;;;;;5001365;28;20383;-71
2022/07/27 00:23:28;;;;;;;4.03;1.50;;;14.10;99.90;;;;;;5003466;28;20042;-71
2022/07/27 00:25:53;;;;;;;3.03;1.38;;;14.10;99.90;;;;;;4999211;28;20116;-71
2022/07/27 00:28:19;;;;;;;4.10;0.80;;;;;;;;;;4994675;28;20073;-71
2022/07/27 00:30:45;;;;;;;5.20;1.40;;;14.00;99.90;;;;;;5005571;28;20034;-71
2022/07/27 00:33:10;;;;;;;3.95;1.02;;;13.90;99.90;;;;;;4998846;28;20033;-71
2022/07/27 00:35:37;;;;;;;4.57;1.00;;;14.00;99.90;;;;;;4997638;28;20108;-71
2022/07/27 00:38:03;;;;;;;2.67;1.30;;;13.80;99.90;;;;;;5010943;28;20046;-71
2022/07/27 00:40:28;;;;;;;3.60;1.25;;;13.90;99.90;;;;;;5007272;28;20109;-71
2022/07/27 00:42:54;;;;;;;3.75;1.02;;;13.80;99.90;;;;;;4995013;28;20414;-71
2022/07/27 00:45:19;;;;;;;3.13;1.33;;;13.80;99.90;;;;;;5010581;28;20471;-71
2022/07/27 00:47:45;;;;;;;4.35;1.13;;;;;;;;;;5010678;28;20037;-71
2022/07/27 00:50:11;;;;;;;4.80;1.70;;;;;;;;;;5003278;28;20025;-71
2022/07/27 00:52:37;;;;;;;5.28;1.85;;;13.60;99.90;;;;;;5004355;28;20045;-71
2022/07/27 00:55:04;;;;;;;2.35;1.10;;;13.50;99.90;;;;;;5010709;28;20026;-71
2022/07/27 00:57:29;;;;;;;2.42;1.38;;;13.40;99.90;;;;;;5010324;28;20756;-71
2022/07/27 00:59:55;;;;;;;6.00;1.70;;;13.40;99.90;;;;;;5010218;28;20506;-71
2022/07/27 01:02:21;;;;;;;3.90;1.25;;;13.30;99.90;;;;;;5010341;28;20052;-71
2022/07/27 01:04:47;;;;;;;4.63;1.67;;;;;;;;;;5009645;28;20022;-71
2022/07/27 01:07:13;;;;;;;3.85;1.60;;;13.10;99.90;;;;;;5010795;28;20515;-71
2022/07/27 01:09:56;;;;;;;1.95;1.35;;;13.00;99.90;;;;;;5010588;28;20561;-71
2022/07/27 01:12:24;;;;;;;5.55;2.15;;;13.10;99.90;;;;;;5000107;28;20161;-71
2022/07/27 01:14:51;;;;;;;3.63;1.48;;;12.80;99.90;;;;;;5009880;28;20057;-71
2022/07/27 01:17:17;;;;;;;4.28;1.60;;;13.10;99.90;;;;;;5010268;28;20025;-71
2022/07/27 01:19:43;;;;;;;2.47;1.15;;;13.00;99.90;;;;;;5010275;28;20038;-71
2022/07/27 01:22:10;;;;;;;4.30;1.50;;;13.20;99.90;;;;;;5005709;28;20129;-71
2022/07/27 01:24:35;;;;;;;2.25;1.13;;;13.10;99.90;;;;;;5001155;28;20050;-71
2022/07/27 01:27:02;;;;;;;5.00;1.80;;;13.10;99.90;;;;;;4994446;28;20053;-71
2022/07/27 01:29:29;;;;;;;3.78;1.55;;;13.10;99.90;;;;;;4998766;28;20088;-71
2022/07/27 01:31:55;;;;;;;6.93;1.77;;;13.50;99.90;;;;;;4992895;28;20030;-71
2022/07/27 01:34:21;;;;;;;3.45;1.20;;;;;;;;;;5004116;28;20106;-71
2022/07/27 01:36:47;;;;;;;3.00;1.73;;;13.10;99.90;;;;;;4999589;28;20737;-71
2022/07/27 01:39:14;;;;;;;2.22;1.20;;;13.10;99.90;;;;;;5008730;28;20037;-71
2022/07/27 01:41:40;;;;;;;4.85;1.40;;;;;;;;;;4990234;28;20046;-71
2022/07/27 01:44:06;;;;;;;2.15;1.30;;;13.00;99.90;;;;;;4990416;28;20030;-71
2022/07/27 01:46:31;;;;;;;2.30;1.40;;;12.90;99.90;;;;;;5003749;28;20391;-71
2022/07/27 01:48:57;;;;;;;4.32;1.17;;;13.00;99.90;;;;;;5002272;28;20030;-71
2022/07/27 01:51:23;;;;;;;2.83;1.15;;;12.90;99.90;;;;;;5010283;28;20030;-71
2022/07/27 01:53:48;;;;;;;3.47;1.25;;;12.80;99.90;;;;;;5001066;28;20426;-71
2022/07/27 01:56:14;;;;;;;5.70;1.67;;;12.90;99.90;;;;;;5005618;28;20022;-71
2022/07/27 01:58:41;;;;;;;2.45;1.15;;;12.90;99.90;;;;;;5002233;28;20066;-71
2022/07/27 02:01:07;;;;;;;1.83;1.55;;;12.80;99.90;;;;;;4993029;28;20065;-71
2022/07/27 02:03:33;;;;;;;4.70;1.58;;;12.90;99.90;;;;;;4995400;28;20103;-72
2022/07/27 02:05:59;;;;;;;6.93;1.63;;;;;;;;;;5010050;28;20037;-71
2022/07/27 02:08:25;;;;;;;6.22;2.55;;;12.80;99.90;;;;;;4995818;28;20107;-71
2022/07/27 02:13:36;;;;;;;5.30;2.20;;;12.70;99.90;;;;;;4978581;28;20041;-71
2022/07/27 02:16:01;;;;;;;6.20;3.03;;;12.80;99.90;;;;;;5007217;28;20038;-71
2022/07/27 02:18:27;;;;;;;5.00;1.85;;;13.20;99.90;;;;;;5013677;28;20382;-71
2022/07/27 02:20:52;;;;;;;3.22;2.10;;;12.90;99.90;;;;;;5001725;28;20483;-71
2022/07/27 02:23:19;;;;;;;4.50;2.33;;;12.90;99.90;;;;;;5007721;28;20026;-71
2022/07/27 02:25:44;;;;;;;4.78;1.98;;;;;;;;;;5003170;28;20048;-71
2022/07/27 02:28:10;;;;;;;3.67;2.33;;;12.90;99.90;;;;;;4999689;28;20117;-71
2022/07/27 02:30:36;;;;;;;2.72;2.25;;;;;;;;;;5005179;28;20031;-71
2022/07/27 02:33:02;;;;;;;8.20;3.25;;;12.90;99.90;;;;;;4994150;28;20030;-71
2022/07/27 02:35:28;;;;;;;5.03;2.55;;;;;;;;;;5005811;28;20022;-71
2022/07/27 02:37:54;;;;;;;5.05;2.03;;;12.90;99.90;;;;;;4995315;28;20033;-71
2022/07/27 02:40:20;;;;;;;3.65;1.90;;;;;;;;;;4993233;28;20035;-71
2022/07/27 02:42:46;;;;;;;3.05;1.90;;;12.80;99.90;;;;;;4994334;28;20664;-70
2022/07/27 02:45:14;;;;;;;5.07;1.58;;;12.90;99.90;;;;;;4994863;28;20026;-71
2022/07/27 02:47:41;;;;;;;5.07;1.75;;;12.70;99.90;;;;;;4994164;28;20030;-71
2022/07/27 02:50:08;;;;;;;2.83;1.52;;;12.80;99.90;;;;;;4995628;28;20057;-71
2022/07/27 02:52:35;;;;;;;4.43;1.55;;;12.80;99.90;;;;;;4993039;28;20483;-71
2022/07/27 02:55:01;;;;;;;3.22;1.33;;;12.60;99.90;;;;;;4974041;28;20643;-71
2022/07/27 02:57:27;;;;;;;2.63;0.95;;;12.40;99.90;;;;;;4994271;28;20038;-72
2022/07/27 02:59:53;;;;;;;2.28;1.13;;;;;;;;;;4997783;28;20034;-71
2022/07/27 03:02:18;;;;;;;2.70;1.45;;;12.70;99.90;;;;;;5010573;28;20045;-71
2022/07/27 03:04:44;;;;;;;3.53;1.30;;;;;;;;;;5004383;28;20057;-71
2022/07/27 03:07:10;;;;;;;2.90;1.25;;;12.50;99.90;;;;;;5005382;28;20109;-71
2022/07/27 03:09:36;;;;;;;3.65;1.30;;;12.50;99.90;;;;;;5004119;28;20038;-71
2022/07/27 03:12:01;;;;;;;3.70;1.10;;;12.70;99.90;;;;;;5002896;28;20023;-71
2022/07/27 03:14:27;;;;;;;2.97;1.20;;;12.70;99.90;;;;;;5003393;28;20022;-71
2022/07/27 03:16:53;;;;;;;5.00;1.40;;;12.60;99.90;;;;;;5004631;28;20567;-71
2022/07/27 03:19:19;;;;;;;4.28;1.33;;;12.60;99.90;;;;;;5008984;28;20084;-71
2022/07/27 03:21:45;;;;;;;2.00;1.10;;;12.40;99.90;;;;;;4995128;28;20167;-71
2022/07/27 03:24:10;;;;;;;2.60;1.33;;;12.60;99.90;;;;;;4999375;28;20019;-71
2022/07/27 03:26:36;;;;;;;2.63;1.17;;;;;;;;;;4998686;28;20541;-71
2022/07/27 03:29:02;;;;;;;5.25;2.22;;;12.30;99.90;;;;;;4993393;28;20061;-71
2022/07/27 03:31:28;;;;;;;4.95;1.85;;;;;;;;;;5007335;28;20026;-71
2022/07/27 03:33:53;;;;;;;4.63;1.60;;;12.80;99.90;;;;;;5012220;28;20026;-71
2022/07/27 03:36:19;;;;;;;2.88;1.48;;;12.60;99.90;;;;;;5003766;28;20062;-71
2022/07/27 03:38:44;;;;;;;4.43;1.50;;;12.50;99.90;;;;;;5006494;28;20482;-71
2022/07/27 03:41:10;;;;;;;2.10;1.60;;;12.40;99.90;;;;;;5004882;28;20030;-71
2022/07/27 03:43:36;;;;;;;7.55;1.85;;;;;;;;;;5005200;28;20037;-71
2022/07/27 03:46:01;;;;;;;6.97;1.83;;;12.40;99.90;;;;;;5011993;28;20021;-71
2022/07/27 03:48:28;;;;;;;4.93;2.42;;;;;;;;;;5000944;28;20033;-71
2022/07/27 03:50:54;;;;;;;4.43;1.75;;;;;;;;;;5009076;28;20025;-71
2022/07/27 03:53:20;;;;;;;3.90;1.40;;;12.40;99.90;;;;;;5001048;28;20113;-71
2022/07/27 03:55:49;;;;;;;2.75;1.52;;;12.40;99.90;;;;;;5006887;28;20041;-71
2022/07/27 03:58:16;;;;;;;3.15;2.08;;;12.40;99.90;;;;;;5011815;28;20026;-71
2022/07/27 04:00:43;;;;;;;4.93;1.70;;;12.50;99.90;;;;;;4998008;28;20492;-70
2022/07/27 04:03:09;;;;;;;2.97;1.50;;;;;;;;;;4984508;28;20034;-71
2022/07/27 04:05:34;;;;;;;9.32;1.98;;;12.40;99.90;;;;;;5009627;28;20092;-71
2022/07/27 04:08:02;;;;;;;5.20;1.80;;;12.60;99.90;;;;;;5009379;28;20478;-71
2022/07/27 04:10:29;;;;;;;5.45;2.15;;;12.60;99.90;;;;;;5011228;28;20026;-73
2022/07/27 04:12:54;;;;;;;4.43;2.40;;;12.60;99.90;;;;;;5009483;28;20044;-71
2022/07/27 04:15:21;;;;;;;3.58;2.10;;;12.60;99.90;;;;;;5000304;28;20093;-72
2022/07/27 04:17:47;;;;;;;4.32;1.80;;;12.70;99.90;;;;;;5011848;28;20080;-71
2022/07/27 04:20:13;;;;;;;3.20;1.92;;;12.70;99.90;;;;;;5004915;28;20114;-71
2022/07/27 04:22:39;;;;;;;7.65;2.00;;;;;;;;;;5003470;28;20050;-71
2022/07/27 04:25:05;;;;;;;6.53;2.55;;;12.70;99.90;;;;;;5011398;28;20069;-71
2022/07/27 04:27:31;;;;;;;6.55;2.20;;;12.60;99.90;;;;;;5011950;28;20030;-69
2022/07/27 04:29:56;;;;;;;5.28;2.03;;;12.60;99.90;;;;;;5009332;28;20490;-71
2022/07/27 04:32:22;;;;;;;5.65;1.88;;;;;;;;;;4992287;28;20100;-71
2022/07/27 04:34:48;;;;;;;5.78;2.08;;;12.50;99.90;;;;;;5004489;28;20658;-71
2022/07/27 04:37:14;;;;;;;5.80;2.17;;;;;;;;;;5003148;28;20045;-71
2022/07/27 04:39:40;;;;;;;6.18;2.50;;;12.50;99.90;;;;;;5005885;28;20777;-71
2022/07/27 04:42:07;;;;;;;7.72;2.28;;;12.50;99.90;;;;;;5002454;28;20034;-70
2022/07/27 04:44:32;;;;;;;3.72;1.85;;;12.60;99.90;;;;;;5010811;28;20159;-71
2022/07/27 04:46:58;;;;;;;3.70;2.08;;;12.50;99.90;;;;;;5011163;28;20112;-71
2022/07/27 04:49:24;;;;;;;7.78;2.63;;;12.60;99.90;;;;;;4992904;28;20479;-71
2022/07/27 04:51:49;;;;;;;6.65;2.05;;;12.60;99.90;;;;;;5010451;28;20030;-71
2022/07/27 04:54:15;;;;;;;5.82;1.90;;;12.70;99.90;;;;;;4997752;28;20038;-71
2022/07/27 04:56:40;;;;;;;4.10;2.70;;;12.70;99.90;;;;;;5004694;28;20026;-71
2022/07/27 04:59:06;;;;;;;6.35;2.47;;;12.60;99.90;;;;;;4991570;28;20031;-71
2022/07/27 05:01:31;;;;;;;4.53;2.40;;;12.70;99.90;;;;;;5004329;28;20034;-71
2022/07/27 05:03:57;;;;;;;6.60;2.40;;;12.70;99.90;;;;;;5000056;28;20034;-71
2022/07/27 05:06:23;;;;;;;3.97;2.42;;;;;;;;;;4999356;28;20034;-71
2022/07/27 05:08:48;;;;;;;4.55;2.63;;;12.60;99.90;;;;;;4990791;28;20036;-71
2022/07/27 05:11:14;;;;;;;4.53;1.92;;;;;;;;;;4998825;28;20053;-71
2022/07/27 05:13:40;;;;;;;8.10;2.95;;;12.80;99.90;;;;;;5009374;28;20057;-71
2022/07/27 05:16:09;;;;;;;3.50;2.45;;;12.70;99.90;;;;;;5002243;28;20068;-71
2022/07/27 05:18:38;;;;;;;5.00;2.22;;;13.00;99.90;;;;;;4995764;28;20030;-71
2022/07/27 05:21:04;;;;;;;4.63;2.33;;;13.00;99.90;;;;;;4990399;28;20018;-71
2022/07/27 05:23:30;;;;;;;3.88;2.20;;;13.10;99.90;;;;;;4994705;28;20034;-71
2022/07/27 05:25:55;;;;;;;7.25;2.25;;;13.10;99.90;;;;;;4993910;28;20053;-71
2022/07/27 05:28:21;;;;;;;3.85;1.65;;;13.30;99.90;;;;;;4992896;28;20031;-71
2022/07/27 05:30:46;;;;;;;4.45;1.50;;;13.20;99.90;;;;;;4994394;28;20034;-72
2022/07/27 05:33:12;;;;;;;4.78;1.75;;;13.40;99.90;;;;;;5010183;28;20065;-71
2022/07/27 05:35:37;;;;;;;4.53;1.48;;;13.40;99.90;;;;;;5002895;28;20364;-71
2022/07/27 05:38:03;;;;;;;5.47;1.73;;;13.60;99.90;;;;;;5009948;28;20375;-71
2022/07/27 05:40:29;;;;;;;6.63;2.50;;;13.60;99.90;;;;;;4998549;28;20882;-71
2022/07/27 05:42:56;;;;;;;6.28;2.30;;;13.70;99.90;;;;;;5007820;28;20041;-71
2022/07/27 05:45:22;;;;;;;5.85;2.20;;;13.70;99.90;;;;;;5005841;28;20498;-71
2022/07/27 05:47:47;;;;;;;6.80;1.90;;;13.60;99.90;;;;;;4989205;28;20057;-71
2022/07/27 05:50:13;;;;;;;3.92;1.50;;;13.60;99.90;;;;;;4993479;28;20391;-71
2022/07/27 05:52:39;;;;;;;3.05;2.05;;;14.10;99.90;;;;;;5004709;28;20459;-71
2022/07/27 05:55:05;;;;;;;2.13;1.73;;;13.90;99.90;;;;;;5002470;28;20022;-71
2022/07/27 05:57:31;;;;;;;5.22;1.33;;;13.90;99.90;;;;;;5004810;28;20022;-71
2022/07/27 05:59:57;;;;;;;4.90;1.73;;;14.00;99.90;;;;;;5008870;28;20044;-71
2022/07/27 06:02:23;;;;;;;3.95;1.70;;;14.40;99.90;;;;;;5009566;28;20079;-70
2022/07/27 06:04:49;;;;;;;3.20;1.52;;;14.30;99.90;;;;;;5012437;28;20414;-70
2022/07/27 06:09:59;;;;;;;5.55;1.40;;;14.50;99.90;;;;;;5002438;28;20052;-71
2022/07/27 06:12:25;;;;;;;1.95;1.35;;;14.60;99.90;;;;;;4999346;28;20697;-71
2022/07/27 06:14:51;;;;;;;3.20;1.70;;;14.50;99.90;;;;;;5004308;28;20038;-71
2022/07/27 06:17:16;;;;;;;3.78;1.38;;;14.70;99.90;;;;;;5004234;28;20049;-71
2022/07/27 06:19:42;;;;;;;5.68;1.02;;;15.20;99.90;;;;;;5004169;28;20123;-71
2022/07/27 06:22:07;;;;;;;3.90;0.85;;;14.90;99.90;;;;;;5003635;28;20038;-71
2022/07/27 06:24:33;;;;;;;2.45;0.80;;;14.90;99.90;;;;;;5003863;28;20129;-71
2022/07/27 06:26:59;;;;;;;6.47;1.83;;;15.10;99.90;;;;;;5008926;28;20030;-71
2022/07/27 06:29:24;;;;;;;2.42;0.93;;;15.20;99.90;;;;;;4995968;28;20030;-71
2022/07/27 06:31:50;;;;;;;1.52;0.80;;;15.40;99.90;;;;;;4997498;28;20121;-71
2022/07/27 06:34:16;;;;;;;2.85;1.17;;;15.60;99.90;;;;;;4992898;28;20063;-71
2022/07/27 06:36:43;;;;;;;1.80;0.90;;;15.50;99.90;;;;;;4987773;28;20045;-71
2022/07/27 06:39:10;;;;;;;4.28;1.00;;;15.60;99.90;;;;;;4999312;28;20487;-71
2022/07/27 06:41:35;;;;;;;1.42;0.70;;;15.70;99.90;;;;;;4996249;28;20066;-71
2022/07/27 06:44:01;;;;;;;2.67;0.77;;;15.80;99.90;;;;;;4996275;28;20030;-71
2022/07/27 06:46:26;;;;;;;4.15;0.98;;;16.00;99.90;;;;;;4995418;28;20034;-71
2022/07/27 06:48:52;;;;;;;1.88;0.60;;;16.20;99.90;;;;;;4999427;28;20038;-71
2022/07/27 06:51:18;;;;;;;1.70;0.68;;;16.20;99.90;;;;;;4999319;28;20026;-71
2022/07/27 06:53:43;;;;;;;3.58;0.77;;;16.40;99.90;;;;;;5007990;28;20077;-71
2022/07/27 06:56:09;;;;;;;1.27;0.60;;;16.70;99.90;;;;;;4996408;28;20026;-71
2022/07/27 06:58:36;;;;;;;3.30;0.73;;;16.80;99.90;;;;;;4995738;28;20030;-71
2022/07/27 07:01:02;;;;;;;2.67;0.95;;;16.90;99.90;;;;;;4996752;28;20022;-71
2022/07/27 07:03:28;;;;;;;2.08;0.60;;;17.00;99.90;;;;;;4979688;28;20026;-71
2022/07/27 07:05:55;;;;;;;4.00;0.95;;;17.20;99.90;;;;;;4993484;28;20038;-70
2022/07/27 07:08:21;;;;;;;2.47;0.57;;;16.90;99.90;;;;;;5009093;28;20507;-71
2022/07/27 07:10:48;;;;;;;3.95;1.15;;;17.30;99.90;;;;;;4996311;28;20373;-71
2022/07/27 07:13:14;;;;;;;3.05;0.57;;;17.40;99.90;;;;;;4992536;28;20022;-71
2022/07/27 07:15:41;;;;;;;1.95;0.80;;;17.40;99.60;;;;;;4990161;28;20038;-71
2022/07/27 07:18:07;;;;;;;6.40;0.95;;;17.50;99.60;;;;;;4991193;28;20082;-71
2022/07/27 07:20:34;;;;;;;5.18;1.58;;;17.60;99.40;;;;;;4991795;28;20030;-71
2022/07/27 07:22:59;;;;;;;2.97;0.88;;;17.60;98.90;;;;;;4992577;28;20078;-71
2022/07/27 07:25:26;;;;;;;4.90;0.57;;;17.80;98.70;;;;;;4994561;28;20128;-72
2022/07/27 07:27:52;;;;;;;1.60;0.68;;;18.50;98.70;;;;;;4992724;28;20034;-71
2022/07/27 07:30:18;;;;;;;1.83;0.70;;;17.70;98.30;;;;;;4995171;28;20108;-70
2022/07/27 07:32:44;;;;;;;0.77;0.47;;;17.60;98.20;;;;;;4994550;28;20032;-70
2022/07/27 07:35:10;;;;;;;5.20;0.70;;;17.80;98.20;;;;;;4989363;28;20471;-71
2022/07/27 07:37:36;;;;;;;2.67;0.50;;;17.70;97.90;;;;;;4993387;28;20065;-71
2022/07/27 07:40:03;;;;;;;4.68;0.88;;;18.00;97.90;;;;;;5000245;28;20426;-70
2022/07/27 07:42:28;;;;;;;5.00;0.90;;;17.80;97.20;;;;;;4994901;28;20070;-72
2022/07/27 07:44:54;;;;;;;2.35;0.60;;;;;;;;;;4993417;28;20085;-71
2022/07/27 07:47:20;;;;;;;2.25;0.70;;;17.80;95.70;;;;;;4986026;28;20387;-71
2022/07/27 07:49:45;;;;;;;1.15;0.50;;;17.90;96.80;;;;;;4998541;28;20025;-71
2022/07/27 07:52:12;;;;;;;3.42;0.60;;;18.20;96.80;;;;;;4991370;28;20368;-73
2022/07/27 07:54:37;;;;;;;2.97;0.65;;;17.90;96.70;;;;;;4995665;28;20446;-72
2022/07/27 07:57:03;;;;;;;4.28;0.70;;;18.10;96.30;;;;;;4994038;28;20026;-73
2022/07/27 07:59:28;;;;;;;3.60;1.05;;;17.90;96.30;;;;;;5002701;28;20363;-72
2022/07/27 08:01:54;;;;;;;2.10;0.50;;;17.90;96.50;;;;;;4992030;28;20065;-72
2022/07/27 08:04:19;;;;;;;2.47;0.77;;;17.90;96.20;;;;;;4973958;28;20081;-72
2022/07/27 08:06:45;;;;;;;2.95;0.40;;;17.90;96.20;;;;;;4990452;28;20026;-72
2022/07/27 08:09:12;;;;;;;3.97;0.85;;;17.90;96.10;;;;;;4990602;28;20083;-72
2022/07/27 08:11:38;;;;;;;3.92;0.45;;;17.90;96.00;;;;;;4991728;28;20026;-72
2022/07/27 08:14:03;;;;;;;3.35;0.40;;;17.80;96.00;;;;;;4997014;28;20485;-73
2022/07/27 08:16:29;;;;;;;4.25;0.60;;;17.80;95.90;;;;;;4996496;28;21067;-73
2022/07/27 08:18:54;;;;;;;2.97;0.65;;;18.00;95.90;;;;;;4991187;28;20018;-73
2022/07/27 08:21:20;;;;;;;3.20;1.08;;;18.30;95.80;;;;;;4991135;28;20447;-71
2022/07/27 08:23:45;;;;;;;3.65;1.10;;;18.30;95.50;;;;;;5002015;28;20562;-71
2022/07/27 08:26:11;;;;;;;2.17;0.50;;;18.50;95.40;;;;;;4992496;28;20053;-71
2022/07/27 08:28:37;;;;;;;3.22;0.50;;;18.50;95.20;;;;;;4997065;28;20025;-71
2022/07/27 08:31:02;;;;;;;3.58;0.80;;;18.70;95.00;;;;;;4984646;28;20017;-71
2022/07/27 08:33:28;;;;;;;3.17;0.60;;;18.90;94.80;;;;;;5010990;28;20122;-72
2022/07/27 08:35:53;;;;;;;0.88;0.40;;;20.40;94.80;;;;;;4996574;28;20637;-73
2022/07/27 08:38:19;;;;;;;2.75;0.63;;;19.30;94.00;;;;;;4990611;28;20321;-72
2022/07/27 08:40:46;;;;;;;2.25;0.50;;;19.40;93.90;;;;;;5004808;28;20594;-71
2022/07/27 08:43:18;;;;;;;1.75;0.60;;;19.30;93.90;;;;;;5002128;28;20031;-72
2022/07/27 08:45:45;;;;;;;6.38;0.70;;;19.10;93.70;;;;;;4993422;28;20096;-72
2022/07/27 08:48:12;;;;;;;1.67;0.70;;;19.30;93.60;;;;;;5008511;28;20018;-71
2022/07/27 08:50:39;;;;;;;3.00;0.60;;;19.30;93.50;;;;;;4998810;28;20109;-71
2022/07/27 08:53:07;;;;;;;3.78;0.68;;;19.30;93.30;;;;;;4997730;28;20471;-71
2022/07/27 08:55:36;;;;;;;0.90;0.40;;;19.80;92.50;;;;;;4984589;28;20045;-71
2022/07/27 08:58:03;;;;;;;2.83;1.23;;;19.70;93.00;;;;;;4989722;28;20387;-71
2022/07/27 09:00:29;;;;;;;2.90;0.50;;;20.30;92.80;;;;;;4997132;28;20109;-71
2022/07/27 09:02:55;;;;;;;1.92;0.50;;;19.80;92.40;;;;;;4994247;28;20038;-71
2022/07/27 09:05:21;;;;;;;2.35;0.60;;;19.60;92.50;;;;;;4992990;28;20077;-70
2022/07/27 09:07:47;;;;;;;1.73;0.47;;;19.60;92.70;;;;;;4989838;28;20038;-70
2022/07/27 09:10:31;;;;;;;2.70;0.60;;;19.30;92.90;;;;;;4990670;28;20026;-73
2022/07/27 09:12:57;;;;;;;;;;;19.20;93.30;;;;;;4988871;28;20049;-73
2022/07/27 09:15:22;;;;;;;3.20;0.47;;;19.10;93.80;;;;;;5003400;28;20371;-72
2022/07/27 09:17:48;;;;;;;2.15;0.70;;;19.20;93.00;;;;;;4992574;28;20108;-73
2022/07/27 09:20:17;;;;;;;4.85;0.68;;;19.20;92.80;;;;;;4987247;28;20042;-73
2022/07/27 09:22:45;;;;;;;3.28;0.50;;;19.40;93.00;;;;;;4998270;28;20446;-74
2022/07/27 09:25:14;;;;;;;4.40;0.80;;;19.50;92.70;;;;;;5000087;28;20054;-74
2022/07/27 09:27:41;;;;;;;1.88;0.40;;;19.60;92.30;;;;;;4999255;28;20077;-74
2022/07/27 09:30:09;;;;;;;6.90;0.73;;;19.70;91.90;;;;;;4989965;28;20423;-74
2022/07/27 09:32:35;;;;;;;0.63;0.45;;;19.80;91.50;;;;;;4990005;28;20080;-74
2022/07/27 09:35:19;;;;;;;1.75;0.40;;;20.00;91.40;;;;;;5003853;28;20537;-74
2022/07/27 09:37:45;;;;;;;;;;;20.00;91.40;;;;;;5005144;28;20019;-74
2022/07/27 09:40:22;;;;;;;3.13;0.60;;;20.30;91.50;;;;;;4990431;28;19932;-74
2022/07/27 09:43:08;;;;;;;1.88;0.70;;;20.40;91.00;;;;;;4988154;28;20050;-74
2022/07/27 09:45:36;;;;;;;2.15;0.52;;;20.90;90.60;;;;;;5001558;28;20529;-73
2022/07/27 09:48:16;;;;;;;2.92;0.50;;;21.00;90.10;;;;;;4992079;28;20022;-74
2022/07/27 09:50:58;;;;;;;2.72;0.40;;;21.40;90.20;;;;;;4989690;28;20038;-73
2022/07/27 09:53:26;;;;;;;2.47;0.40;;;21.10;89.80;;;;;;4989285;28;20038;-73
2022/07/27 09:56:08;;;;;;;2.70;0.80;;;21.90;90.00;;;;;;4989499;28;20030;-72
2022/07/27 09:59:00;;;;;;;2.25;0.70;;;20.80;88.10;;;;;;4988797;28;20113;-72
2022/07/27 10:01:28;;;;;;;2.88;0.90;;;20.60;90.30;;;;;;4999052;28;20031;-73
2022/07/27 10:04:03;;;;;;;1.88;0.60;;;20.20;90.20;;;;;;5007112;28;20026;-73
2022/07/27 10:06:29;;;;;;;5.85;1.15;;;20.00;90.30;;;;;;4990571;28;20026;-73
2022/07/27 10:08:57;;;;;;;2.13;0.60;;;19.80;90.20;;;;;;4994335;28;20038;-74
2022/07/27 10:11:24;;;;;;;4.00;0.50;;;19.80;90.50;;;;;;4988575;28;20041;-74
2022/07/27 10:13:52;;;;;;;3.22;0.75;;;20.30;90.20;;;;;;4989679;28;20471;-74
2022/07/27 10:16:23;;;;;;;2.75;0.70;;;19.80;89.60;;;;;;4991975;28;20030;-74
2022/07/27 10:19:12;;;;;;;2.60;0.30;;;19.60;96.60;;;;;;4986302;28;20360;-74
2022/07/27 10:21:39;;;;;;;2.80;0.60;;;19.90;87.50;;;;;;4988342;28;20065;-73
2022/07/27 10:24:09;;;;;;;1.60;0.50;;;20.20;88.60;;;;;;4989940;28;20034;-73
2022/07/27 10:26:40;;;;;;;2.05;0.73;;;20.00;88.80;;;;;;4988459;28;20475;-74
2022/07/27 10:29:14;;;;;;;1.95;0.50;;;20.00;86.40;;;;;;4983060;28;20030;-73
2022/07/27 10:31:42;;;;;;;2.47;0.55;;;20.10;87.50;;;;;;4990250;28;20050;-74
2022/07/27 10:34:11;;;;;;;0.98;0.43;;;19.80;86.80;;;;;;4991349;28;20042;-73
2022/07/27 10:36:45;;;;;;;0.65;0.30;;;20.60;87.30;;;;;;4992167;28;20105;-73
2022/07/27 10:39:23;;;;;;;0.68;0.30;;;19.60;86.70;;;;;;4996881;28;20041;-73
2022/07/27 10:41:49;;;;;;;3.33;0.73;;;19.50;84.50;;;;;;4999645;28;20133;-74
2022/07/27 10:44:17;;;;;;;0.63;0.40;;;19.30;83.60;;;;;;4992002;28;20161;-73
2022/07/27 10:46:45;;;;;;;1.63;0.50;;;19.30;82.20;;;;;;5003781;28;20030;-73
2022/07/27 10:49:25;;;;;;;2.20;0.43;;;19.60;83.30;;;;;;5003694;28;20019;-73
2022/07/27 10:51:52;;;;;;;1.48;0.40;;;19.40;81.90;;;;;;4993487;28;20034;-73
2022/07/27 10:54:26;;;;;;;3.80;0.90;;;20.50;83.70;;;;;;4992513;28;20037;-73
2022/07/27 10:56:54;;;;;;;2.33;0.40;;;19.30;81.40;;;;;;4990663;28;20475;-73
2022/07/27 10:59:38;;;;;;;1.58;0.40;;;19.20;83.60;;;;;;4993258;28;20360;-73
2022/07/27 11:02:06;;;;;;;1.58;0.50;;;19.30;82.90;;;;;;5003550;28;20041;-74
2022/07/27 11:04:32;;;;;;;1.67;0.30;;;19.10;83.90;;;;;;4988388;28;20030;-73
2022/07/27 11:07:00;;;;;;;0.73;0.30;;;19.40;83.50;;;;;;5004844;28;20044;-73
2022/07/27 11:09:41;;;;;;;1.38;0.50;;;19.50;83.50;;;;;;5008680;28;20033;-73
2022/07/27 11:12:10;;;;;;;1.63;0.90;;;19.70;84.60;;;;;;5002528;28;20072;-73
2022/07/27 11:14:45;;;;;;;1.77;0.30;;;19.90;83.20;;;;;;5010702;28;20030;-72
2022/07/27 11:17:11;;;;;;;1.90;0.40;;;20.00;83.20;;;;;;5009537;28;20021;-74
2022/07/27 11:19:36;;;;;;;2.13;0.30;;;20.30;81.90;;;;;;4985744;28;20428;-73
2022/07/27 11:22:02;;;;;;;1.42;0.38;;;20.60;81.50;;;;;;4997382;28;20039;-76
2022/07/27 11:24:27;;;;;;;2.38;0.60;;;20.90;81.00;;;;;;4987659;28;20062;-76
2022/07/27 11:26:53;;;;;;;2.15;0.43;;;21.00;80.30;;;;;;4991738;28;20068;-75
2022/07/27 11:29:21;;;;;;;1.40;0.65;;;21.00;80.10;;;;;;4993249;28;20098;-73
2022/07/27 11:31:50;;;;;;;1.98;0.60;;;20.90;80.30;;;;;;4993045;28;20538;-73
2022/07/27 11:34:16;;;;;;;3.40;0.65;;;20.90;80.10;;;;;;4995643;28;20383;-73
2022/07/27 11:36:44;;;;;;;1.67;0.50;;;20.90;80.30;;;;;;4994226;28;20029;-72
2022/07/27 11:39:15;;;;;;;0.90;0.50;;;20.90;79.90;;;;;;4991860;28;20560;-71
2022/07/27 11:41:42;;;;;;;2.08;0.47;;;20.90;79.00;;;;;;4988613;28;20053;-71
2022/07/27 11:44:16;;;;;;;2.50;0.50;;;20.90;78.50;;;;;;4992425;28;20028;-71
2022/07/27 11:46:44;;;;;;;2.92;0.50;;;23.10;80.00;;;;;;4988830;28;20407;-71
2022/07/27 11:49:12;;;;;;;3.00;0.60;;;21.00;78.50;;;;;;4990795;28;20034;-71
2022/07/27 11:51:39;;;;;;;3.38;0.57;;;21.00;77.90;;;;;;4990047;28;20511;-71
2022/07/27 11:54:07;;;;;;;7.07;0.90;;;21.00;77.60;;;;;;4991514;28;20022;-71
2022/07/27 11:56:35;;;;;;;0.70;0.30;;;21.00;77.80;;;;;;4996842;28;20026;-71
2022/07/27 11:59:07;;;;;;;2.05;0.40;;;21.00;77.60;;;;;;4992100;28;20533;-71
2022/07/27 12:01:40;;;;;;;2.70;0.50;;;20.80;77.80;;;;;;4999748;28;20041;-71
2022/07/27 12:04:20;;;;;;;2.00;1.00;;;21.20;77.60;;;;;;4997814;28;20026;-72
2022/07/27 12:07:06;;;;;;;0.98;0.40;;;20.90;76.10;;;;;;4992514;28;20022;-71
2022/07/27 12:09:35;;;;;;;2.42;0.70;;;20.90;78.80;;;;;;4979103;28;20031;-71
2022/07/27 12:12:17;;;;;;;3.97;0.80;;;20.70;78.20;;;;;;4993432;28;20018;-71
2022/07/27 12:14:49;;;;;;;6.68;0.65;;;20.80;77.00;;;;;;4992777;28;20038;-71
2022/07/27 12:17:35;;;;;;;2.17;0.30;;;21.00;76.50;;;;;;4992119;28;20061;-71
2022/07/27 12:20:13;;;;;;;2.67;0.60;;;21.00;78.80;;;;;;4995254;28;20038;-71
2022/07/27 12:22:42;;;;;;;2.25;0.52;;;21.00;75.50;;;;;;4994340;28;20126;-71
2022/07/27 12:25:17;;;;;;;2.35;0.73;;;21.20;77.70;;;;;;4992057;28;20077;-71
2022/07/27 12:27:59;;;;;;;0.77;0.30;;;21.40;74.10;;;;;;4991547;28;20121;-71
2022/07/27 12:30:31;;;;;;;1.08;0.40;;;21.50;74.20;;;;;;4979004;28;20041;-71
2022/07/27 12:32:57;;;;;;;2.15;0.50;;;21.50;76.00;;;;;;4997082;28;20482;-71
2022/07/27 12:35:29;;;;;;;1.38;0.70;;;21.50;74.90;;;;;;5010338;28;20026;-71
2022/07/27 12:38:07;;;;;;;1.42;0.30;;;21.50;75.00;;;;;;4997365;28;20026;-71
2022/07/27 12:40:34;;;;;;;1.00;0.50;;;21.50;74.90;;;;;;5010481;28;20053;-71
2022/07/27 12:43:05;;;;;;;0.77;0.32;;;21.40;75.50;;;;;;5010837;28;20034;-72
2022/07/27 12:45:35;;;;;;;2.78;0.50;;;21.40;76.10;;;;;;4998799;28;20031;-72
2022/07/27 12:48:16;;;;;;;2.22;0.40;;;21.40;76.00;;;;;;4997169;28;20498;-72
2022/07/27 12:50:43;;;;;;;3.00;0.55;;;21.50;76.10;;;;;;4982501;28;20026;-72
2022/07/27 12:53:12;;;;;;;1.30;0.50;;;21.40;75.40;;;;;;4994777;28;20020;-72
2022/07/27 12:55:39;;;;;;;2.33;0.47;;;21.50;75.20;;;;;;4996549;28;20022;-72
2022/07/27 12:58:09;;;;;;;3.22;0.40;;;21.50;74.90;;;;;;4996147;28;20032;-71
2022/07/27 13:00:36;;;;;;;1.42;0.55;;;21.60;75.00;;;;;;4989192;28;20483;-72
2022/07/27 13:03:03;;;;;;;1.92;0.43;;;22.10;74.50;;;;;;5001919;28;20088;-71